createdAt,value
2022-12-15T00:02:09.898Z,49.55
2022-12-15T00:04:54.963Z,44.83
2022-12-15T00:07:39.784Z,47.42
2022-12-15T00:10:24.633Z,42.92
2022-12-15T00:13:09.460Z,45.97
2022-12-15T00:15:54.348Z,42.20
2022-12-15T00:18:39.147Z,43.92
2022-12-15T00:21:23.893Z,41.33
2022-12-15T00:24:08.652Z,36.88
2022-12-15T00:26:53.441Z,45.85
2022-12-15T00:29:38.409Z,45.35
2022-12-15T00:32:23.764Z,43.35
2022-12-15T00:35:08.558Z,41.58
2022-12-15T00:37:53.695Z,43.78
2022-12-15T00:40:20.101Z,44.13
2022-12-15T00:42:49.652Z,44.22
2022-12-15T00:45:16.297Z,43.40
2022-12-15T00:47:42.716Z,41.42
2022-12-15T00:50:27.495Z,38.78
2022-12-15T00:53:12.690Z,45.13
2022-12-15T00:55:57.569Z,42.47
2022-12-15T00:58:42.351Z,43.25
2022-12-15T01:01:28.443Z,39.95
2022-12-15T01:04:13.435Z,40.83
2022-12-15T01:06:58.485Z,39.35
2022-12-15T01:09:43.334Z,41.42
2022-12-15T01:12:28.243Z,33.65
2022-12-15T01:15:13.276Z,32.55
2022-12-15T01:17:58.100Z,33.72
2022-12-15T01:20:24.577Z,30.48
2022-12-15T01:22:52.994Z,35.65
2022-12-15T01:25:20.082Z,29.25
2022-12-15T01:27:46.760Z,34.80
2022-12-15T01:30:14.384Z,33.22
2022-12-15T01:32:45.864Z,34.72
2022-12-15T01:37:39.078Z,30.98
2022-12-15T01:40:24.129Z,38.10
2022-12-15T01:42:51.035Z,32.53
2022-12-15T01:45:43.402Z,31.35
2022-12-15T01:48:11.199Z,31.80
2022-12-15T01:50:40.789Z,28.75
2022-12-15T01:53:07.840Z,30.40
2022-12-15T01:55:34.529Z,28.13
2022-12-15T01:58:03.432Z,33.30
2022-12-15T02:00:30.514Z,30.80
2022-12-15T02:02:59.446Z,28.63
2022-12-15T02:05:26.944Z,30.75
2022-12-15T02:07:53.375Z,31.23
2022-12-15T02:10:19.857Z,29.45
2022-12-15T02:12:52.223Z,28.13
2022-12-15T02:15:31.677Z,27.00
2022-12-15T02:18:01.982Z,31.20
2022-12-15T02:20:40.469Z,26.08
2022-12-15T02:23:06.835Z,27.13
2022-12-15T02:25:38.262Z,30.73
2022-12-15T02:28:06.764Z,28.30
2022-12-15T02:30:36.249Z,28.85
2022-12-15T02:33:02.639Z,28.05
2022-12-15T02:35:32.787Z,23.80
2022-12-15T02:37:59.417Z,23.88
2022-12-15T02:40:25.887Z,27.83
2022-12-15T02:42:53.635Z,27.15
2022-12-15T02:45:31.762Z,26.65
2022-12-15T02:47:58.288Z,23.38
2022-12-15T02:50:42.059Z,24.13
2022-12-15T02:53:14.455Z,26.23
2022-12-15T02:55:46.789Z,24.17
2022-12-15T02:58:19.599Z,26.15
2022-12-15T03:00:53.041Z,26.73
2022-12-15T03:03:20.782Z,26.90
2022-12-15T03:05:53.332Z,29.25
2022-12-15T03:08:21.148Z,28.15
2022-12-15T03:10:49.552Z,29.60
2022-12-15T03:13:15.993Z,26.17
2022-12-15T03:15:42.680Z,26.17
2022-12-15T03:18:09.283Z,25.58
2022-12-15T03:20:35.744Z,25.88
2022-12-15T03:23:02.167Z,28.48
2022-12-15T03:25:29.302Z,28.80
2022-12-15T03:27:55.901Z,26.88
2022-12-15T03:30:22.344Z,29.42
2022-12-15T03:32:48.931Z,26.70
2022-12-15T03:35:15.398Z,26.65
2022-12-15T03:37:42.884Z,25.73
2022-12-15T03:40:10.421Z,26.42
2022-12-15T03:42:49.008Z,23.73
2022-12-15T03:45:16.602Z,22.92
2022-12-15T03:47:43.585Z,26.40
2022-12-15T03:50:10.609Z,23.42
2022-12-15T03:52:36.979Z,24.50
2022-12-15T03:55:04.363Z,28.77
2022-12-15T03:57:31.530Z,21.98
2022-12-15T03:59:57.947Z,23.73
2022-12-15T04:02:24.520Z,19.88
2022-12-15T04:04:51.136Z,19.45
2022-12-15T04:07:17.574Z,20.55
2022-12-15T04:09:44.369Z,20.85
2022-12-15T04:12:11.016Z,19.58
2022-12-15T04:14:42.540Z,20.10
2022-12-15T04:17:11.994Z,19.92
2022-12-15T04:19:56.919Z,19.67
2022-12-15T04:22:23.699Z,20.75
2022-12-15T04:25:08.544Z,18.52
2022-12-15T04:27:58.429Z,22.45
2022-12-15T04:30:46.380Z,18.98
2022-12-15T04:33:31.578Z,20.25
2022-12-15T04:36:16.904Z,21.55
2022-12-15T04:39:01.675Z,19.50
2022-12-15T04:41:46.617Z,17.52
2022-12-15T04:44:31.763Z,18.50
2022-12-15T04:47:17.323Z,20.95
2022-12-15T04:50:02.130Z,19.77
2022-12-15T04:52:47.093Z,20.45
2022-12-15T04:55:32.056Z,19.58
2022-12-15T04:58:16.816Z,19.95
2022-12-15T05:01:01.841Z,22.13
2022-12-15T05:03:46.974Z,18.27
2022-12-15T05:06:31.895Z,25.90
2022-12-15T05:09:16.593Z,22.63
2022-12-15T05:12:01.482Z,22.02
2022-12-15T05:14:46.404Z,19.42
2022-12-15T05:17:38.317Z,18.70
2022-12-15T05:20:26.339Z,21.55
2022-12-15T05:23:14.691Z,19.02
2022-12-15T05:26:00.163Z,17.80
2022-12-15T05:28:45.463Z,19.48
2022-12-15T05:31:30.320Z,20.20
2022-12-15T05:34:02.604Z,20.83
2022-12-15T05:36:31.426Z,18.15
2022-12-15T05:38:57.861Z,20.13
2022-12-15T05:41:24.649Z,21.55
2022-12-15T05:43:51.078Z,21.10
2022-12-15T05:46:17.579Z,22.15
2022-12-15T05:48:44.778Z,26.27
2022-12-15T05:51:11.821Z,27.60
2022-12-15T05:53:39.480Z,25.90
2022-12-15T05:56:07.581Z,23.45
2022-12-15T05:58:34.078Z,23.10
2022-12-15T06:01:11.998Z,21.55
2022-12-15T06:03:38.875Z,25.55
2022-12-15T06:06:05.708Z,24.27
2022-12-15T06:08:33.695Z,24.75
2022-12-15T06:11:00.483Z,24.58
2022-12-15T06:13:27.916Z,23.63
2022-12-15T06:15:58.374Z,24.25
2022-12-15T06:18:25.276Z,27.83
2022-12-15T06:20:58.795Z,31.35
2022-12-15T06:23:25.485Z,27.17
2022-12-15T06:25:51.979Z,27.08
2022-12-15T06:28:23.793Z,28.63
2022-12-15T06:33:16.605Z,26.50
2022-12-15T06:35:43.069Z,26.40
2022-12-15T06:38:09.477Z,30.52
2022-12-15T06:40:38.213Z,32.70
2022-12-15T06:43:05.176Z,32.17
2022-12-15T06:45:31.626Z,32.10
2022-12-15T06:48:01.502Z,31.98
2022-12-15T06:50:28.328Z,33.35
2022-12-15T06:52:54.767Z,33.78
2022-12-15T06:55:21.198Z,29.38
2022-12-15T06:57:47.899Z,27.45
2022-12-15T07:00:15.902Z,31.30
2022-12-15T07:02:43.014Z,31.38
2022-12-15T07:05:09.690Z,27.42
2022-12-15T07:07:36.140Z,30.23
2022-12-15T07:10:02.590Z,28.88
2022-12-15T07:12:29.685Z,24.55
2022-12-15T07:14:56.211Z,25.48
2022-12-15T07:17:22.688Z,25.70
2022-12-15T07:19:49.154Z,23.85
2022-12-15T07:22:15.655Z,31.83
2022-12-15T07:24:42.155Z,29.98
2022-12-15T07:27:08.574Z,28.58
2022-12-15T07:29:34.974Z,28.63
2022-12-15T07:32:01.758Z,36.85
2022-12-15T07:34:28.206Z,31.98
2022-12-15T07:36:55.351Z,31.25
2022-12-15T07:39:21.897Z,28.88
2022-12-15T07:41:48.514Z,33.13
2022-12-15T07:44:15.006Z,30.15
2022-12-15T07:46:41.570Z,31.67
2022-12-15T07:49:09.310Z,27.75
2022-12-15T07:51:35.754Z,28.65
2022-12-15T07:54:02.148Z,29.50
2022-12-15T07:56:28.597Z,30.08
2022-12-15T07:58:55.047Z,34.05
2022-12-15T08:01:21.638Z,31.27
2022-12-15T08:03:49.280Z,29.17
2022-12-15T08:06:16.014Z,26.63
2022-12-15T08:08:43.427Z,27.17
2022-12-15T08:11:10.516Z,29.88
2022-12-15T08:14:10.382Z,28.77
2022-12-15T08:16:24.758Z,27.27
2022-12-15T08:18:51.334Z,27.77
2022-12-15T08:21:17.972Z,27.80
2022-12-15T08:23:44.374Z,28.90
2022-12-15T08:26:12.094Z,28.20
2022-12-15T08:28:39.712Z,25.73
2022-12-15T08:31:07.200Z,26.25
2022-12-15T08:33:34.220Z,25.17
2022-12-15T08:36:03.095Z,28.42
2022-12-15T08:38:30.110Z,24.52
2022-12-15T08:40:57.041Z,27.42
2022-12-15T08:43:23.662Z,23.63
2022-12-15T08:45:50.212Z,27.95
2022-12-15T14:29:05.967Z,47.20
2022-12-15T14:31:32.710Z,43.60
2022-12-15T14:34:22.766Z,43.92
2022-12-15T14:36:50.570Z,51.28
2022-12-15T14:39:21.042Z,47.90
2022-12-15T14:41:48.916Z,56.75
2022-12-15T14:44:32.193Z,69.93
2022-12-15T14:47:16.991Z,73.45
2022-12-15T14:49:45.784Z,68.85
2022-12-15T14:52:24.271Z,66.32
2022-12-15T14:54:57.298Z,63.35
2022-12-15T14:57:29.066Z,68.32
2022-12-15T14:59:56.085Z,66.63
2022-12-15T15:02:25.088Z,144.07
2022-12-15T15:05:00.466Z,112.93
2022-12-15T15:07:28.577Z,87.60
2022-12-15T15:09:56.143Z,80.70
2022-12-15T15:12:24.230Z,117.40
2022-12-15T15:15:09.270Z,133.43
2022-12-15T15:17:37.544Z,202.52
2022-12-15T15:20:07.122Z,615.60
2022-12-15T15:22:34.200Z,490.73
2022-12-15T15:25:01.681Z,312.98
2022-12-15T15:27:38.703Z,148.82
2022-12-15T15:30:17.053Z,126.55
2022-12-15T15:32:51.379Z,131.43
2022-12-15T15:35:19.792Z,127.13
2022-12-15T15:37:46.386Z,117.68
2022-12-15T15:40:14.709Z,133.02
2022-12-15T15:42:41.298Z,130.45
2022-12-15T15:45:14.764Z,139.68
2022-12-15T15:47:42.710Z,147.82
2022-12-15T15:50:13.727Z,144.43
2022-12-15T15:52:40.403Z,370.27
2022-12-15T15:55:08.015Z,225.90
2022-12-15T15:57:34.675Z,226.68
2022-12-15T16:00:02.576Z,413.85
2022-12-15T16:02:29.142Z,262.10
2022-12-15T16:04:56.406Z,281.77
2022-12-15T16:07:24.281Z,190.90
2022-12-15T16:09:52.063Z,173.73
2022-12-15T16:12:42.504Z,165.65
2022-12-15T16:15:30.045Z,143.60
2022-12-15T16:17:56.529Z,134.63
2022-12-15T16:20:26.024Z,132.73
2022-12-15T16:22:57.122Z,128.38
2022-12-15T16:25:36.614Z,121.93
2022-12-15T16:28:20.903Z,121.25
2022-12-15T16:30:48.531Z,135.38
2022-12-15T16:33:15.122Z,121.68
2022-12-15T16:35:43.086Z,123.65
2022-12-15T16:38:25.762Z,115.15
2022-12-15T16:40:53.236Z,102.70
2022-12-15T16:43:23.011Z,110.35
2022-12-15T16:45:51.683Z,108.22
2022-12-15T16:48:18.191Z,102.53
2022-12-15T16:50:51.844Z,103.22
2022-12-15T16:53:38.741Z,100.13
2022-12-15T16:56:07.991Z,104.47
2022-12-15T16:58:35.423Z,90.20
2022-12-15T17:01:03.179Z,86.43
2022-12-15T17:03:29.823Z,93.43
2022-12-15T17:06:00.673Z,84.85
2022-12-15T17:08:42.127Z,97.85
2022-12-15T17:11:19.744Z,92.63
2022-12-15T17:13:48.098Z,93.43
2022-12-15T17:16:15.539Z,109.70
2022-12-15T17:18:44.313Z,110.18
2022-12-15T17:21:17.488Z,116.40
2022-12-15T17:23:51.043Z,117.60
2022-12-15T17:26:29.578Z,113.43
2022-12-15T17:28:58.045Z,129.00
2022-12-15T17:31:28.981Z,123.55
2022-12-15T17:34:02.402Z,133.25
2022-12-15T17:36:30.614Z,133.65
2022-12-15T17:38:58.394Z,130.93
2022-12-15T17:41:57.636Z,110.95
2022-12-15T17:44:32.968Z,118.20
2022-12-15T17:47:01.207Z,110.93
2022-12-15T17:49:33.046Z,113.85
2022-12-15T17:52:03.739Z,112.82
2022-12-15T17:54:30.247Z,110.47
2022-12-15T17:56:57.455Z,109.88
2022-12-15T17:59:23.910Z,115.47
2022-12-15T18:01:51.229Z,123.28
2022-12-15T18:04:17.760Z,130.98
2022-12-15T18:06:55.330Z,125.80
2022-12-15T18:09:26.711Z,129.77
2022-12-15T18:11:54.269Z,128.13
2022-12-15T18:14:22.793Z,141.30
2022-12-15T18:16:51.595Z,156.23
2022-12-15T18:19:21.012Z,152.20
2022-12-15T18:21:48.212Z,167.77
2022-12-15T18:24:17.140Z,143.90
2022-12-15T18:26:45.485Z,160.93
2022-12-15T18:29:17.961Z,213.75
2022-12-15T18:31:47.302Z,190.30
2022-12-15T18:34:15.563Z,160.93
2022-12-15T18:36:44.966Z,151.75
2022-12-15T18:39:19.189Z,138.93
2022-12-15T18:41:46.528Z,132.60
2022-12-15T18:44:22.854Z,142.23
2022-12-15T18:46:50.122Z,117.18
2022-12-15T18:49:17.481Z,117.70
2022-12-15T18:51:45.621Z,110.18
2022-12-15T18:54:22.876Z,102.75
2022-12-15T18:56:50.524Z,86.18
2022-12-15T18:59:18.486Z,91.25
2022-12-15T19:01:46.970Z,86.28
2022-12-15T19:04:14.047Z,82.47
2022-12-15T19:06:41.689Z,79.75
2022-12-15T19:09:13.612Z,92.20
2022-12-15T19:14:32.989Z,89.15
2022-12-15T19:20:04.004Z,91.85
2022-12-15T19:22:32.426Z,94.55
2022-12-15T19:24:59.170Z,97.78
2022-12-15T19:27:33.424Z,103.70
2022-12-15T19:29:59.902Z,115.95
2022-12-15T19:32:27.681Z,123.47
2022-12-15T19:34:54.089Z,116.60
2022-12-15T19:37:25.821Z,123.25
2022-12-15T19:39:53.106Z,119.70
2022-12-15T19:42:27.427Z,126.90
2022-12-15T19:44:54.284Z,115.00
2022-12-15T19:47:21.557Z,112.38
2022-12-15T19:49:47.964Z,96.38
2022-12-15T19:52:19.473Z,89.75
2022-12-15T19:54:46.675Z,89.22
2022-12-15T19:57:15.434Z,77.70
2022-12-15T19:59:41.939Z,92.78
2022-12-15T20:02:21.416Z,78.85
2022-12-15T20:04:48.428Z,80.43
2022-12-15T20:07:19.901Z,76.15
2022-12-15T20:09:46.398Z,76.60
2022-12-15T20:12:20.458Z,85.85
2022-12-15T20:14:47.229Z,84.70
2022-12-15T20:17:15.462Z,81.60
2022-12-15T20:19:43.109Z,87.28
2022-12-15T20:22:18.416Z,85.90
2022-12-15T20:24:45.543Z,82.93
2022-12-15T20:27:13.719Z,74.82
2022-12-15T20:29:40.222Z,59.60
2022-12-15T20:32:13.583Z,52.80
2022-12-15T20:34:40.280Z,51.78
2022-12-15T20:37:17.434Z,59.22
2022-12-15T20:39:43.866Z,57.25
2022-12-15T20:42:19.650Z,59.33
2022-12-15T20:44:46.242Z,58.67
2022-12-15T20:47:23.719Z,62.30
2022-12-15T20:49:50.765Z,59.67
2022-12-15T20:52:22.721Z,58.63
2022-12-15T20:54:50.414Z,55.70
2022-12-15T20:57:17.385Z,52.30
2022-12-15T20:59:47.375Z,54.60
2022-12-15T21:02:21.625Z,53.28
2022-12-15T21:04:49.073Z,60.47
2022-12-15T21:07:19.880Z,59.97
2022-12-15T21:09:47.058Z,58.00
2022-12-15T21:12:18.251Z,63.17
2022-12-15T21:14:45.454Z,54.90
2022-12-15T21:17:16.076Z,54.88
2022-12-15T21:19:43.587Z,54.17
2022-12-15T21:22:17.263Z,49.10
2022-12-15T21:24:45.133Z,49.38
2022-12-15T21:27:15.022Z,55.50
2022-12-15T21:29:47.282Z,51.17
2022-12-15T21:32:16.981Z,58.38
2022-12-15T21:34:44.916Z,50.00
2022-12-15T21:37:30.187Z,50.78
2022-12-15T21:40:00.278Z,48.13
2022-12-15T21:42:27.225Z,44.60
2022-12-15T21:44:54.428Z,47.75
2022-12-15T21:47:24.177Z,48.03
2022-12-15T21:49:51.751Z,43.88
2022-12-15T21:52:19.161Z,45.65
2022-12-15T21:54:46.364Z,40.40
2022-12-15T21:57:13.145Z,41.90
2022-12-15T21:59:40.988Z,40.03
2022-12-15T22:02:24.373Z,39.20
2022-12-15T22:04:52.717Z,38.33
2022-12-15T22:07:22.247Z,41.15
2022-12-15T22:09:49.417Z,40.60
2022-12-15T22:12:21.225Z,38.22
2022-12-15T22:14:48.546Z,38.65
2022-12-15T22:17:19.357Z,38.25
2022-12-15T22:19:47.291Z,39.67
2022-12-15T22:22:13.889Z,40.05
2022-12-15T22:24:41.355Z,40.22
2022-12-15T22:27:20.973Z,39.40
2022-12-15T22:29:49.102Z,37.08
2022-12-15T22:32:16.291Z,36.25
2022-12-15T22:34:44.893Z,37.20
2022-12-15T22:37:11.315Z,40.33
2022-12-15T22:39:39.229Z,42.53
2022-12-15T22:42:05.746Z,39.50
2022-12-15T22:44:36.604Z,40.03
2022-12-15T22:47:04.032Z,41.65
2022-12-15T22:49:33.209Z,39.55
2022-12-15T22:51:59.868Z,42.25
2022-12-15T22:54:27.884Z,37.53
2022-12-15T22:56:58.423Z,36.92
2022-12-15T22:59:29.724Z,38.80
2022-12-15T23:01:56.335Z,34.15
2022-12-15T23:04:23.167Z,34.42
2022-12-15T23:06:50.130Z,36.72
2022-12-15T23:09:18.164Z,32.90
2022-12-15T23:11:45.029Z,28.83
2022-12-15T23:14:13.017Z,31.55
2022-12-15T23:16:39.538Z,36.15
2022-12-15T23:19:07.800Z,31.27
2022-12-15T23:21:35.318Z,30.60
2022-12-15T23:24:01.964Z,33.00
2022-12-15T23:26:28.443Z,37.20
2022-12-15T23:28:55.337Z,31.17
2022-12-15T23:31:22.222Z,32.20
2022-12-15T23:33:49.862Z,34.13
2022-12-15T23:36:18.620Z,33.90
2022-12-15T23:38:45.098Z,28.70
2022-12-15T23:41:14.952Z,34.47
2022-12-15T23:43:41.341Z,30.77
2022-12-15T23:46:07.900Z,35.30
2022-12-15T23:48:38.675Z,34.88
2022-12-15T23:51:06.814Z,31.88
2022-12-15T23:53:34.297Z,36.17
2022-12-15T23:56:08.605Z,33.53
2022-12-15T23:58:35.279Z,34.42
